San Francisco, CA

06:24 PST le 21 décembre 2014 (GMT -0800)
Excelsior | Change Station
CLOSE
Current Station
Stations météorologiques personnelles
Location: San Francisco, CA
Altitude: 312 ft
Stations météo à proximité
Avis météorologiques actifs: Coastal Flood Advisory

Alt. 312 ft 37.72 °N, 122.43 °W | Updated 1 second ago

Couvert
Couvert
62.1 ° F
Paraît 62.1 ° F
N
4.0
Vent Variable Vent de OSO
Gusts 4.9 mph

Aujourd'hui
Haut(e) -- | Bas -- ° F
--% Risque de précip.
Hier
Haut(e) -- | Bas -- ° F
Precip. -- pouce
7:21 AM 4:54 PM
Lune descendante, 0% visible
Pression 30.27 pouce
Visibilité 3.0 Miles terrestres
Nuages Couvert 600 ft
Point de rosée 62 ° F
Humidité 98%
Précipitations 0.04 pouce
Profondeur de la couche neigeuse Non disponible.
UV 0 sur 12
Pollen 4.00 sur 12
Qualité de l'air Non disponible.
Flu Activity Non disponible.
SPECI KSFO 211408Z 00000KT 3SM BR OVC006 16/16 A3027 RMK AO2

More Conditions Fewer Conditions

Pression 30.27 pouce
Visibilité 3.0 Miles terrestres
Nuages Couvert 600 ft
Point de rosée 62 ° F
Humidité 98%
Précipitations 0.04 pouce
Profondeur de la couche neigeuse Non disponible.
UV 0 sur 12
Pollen 4.00 sur 12
Qualité de l'air Non disponible.
Flu Activity Non disponible.
SPECI KSFO 211408Z 00000KT 3SM BR OVC006 16/16 A3027 RMK AO2

More Conditions Fewer Conditions

10-Day Weather Forecast

Almanac

Astronomie

Dec. 21, 2014 Lever Coucher
Temps réel
Crépuscule civil
Crépuscule nautique
Crépuscule astronomique
Lune
Durée de lumière visible
Longueur du jour
Tomorrow will be .
, % of the Moon is Illuminated

Extrêmes aujourd'hui

State Highs State Lows

Community

WunderPhotos

Upload Photos

1,779,392 Photos téléchargées !

WunderBlogs® & News

Nearby

Qualité de l'air

  Qualité de l'air Indice de la qualité de l'air Polluant
Not available.

Épaisseur de neige

Station Depth Altitude

Activité sismique

Ville Distance Mag. Time & Date
Minimum magnitude displayed is 2.5.

Températures des eaux côtières

Lieu Température

Stations météo à proximité